Time;durP1;ratioP1;P1;durP2;ratioP2;P2;SDS_P1;SDS_P2;PMS_P1;PMS_P2;Temp;Humidity;BMP_temperature;BMP_pressure;BME280_temperature;BME280_humidity;BME280_pressure;Samples;Min_cycle;Max_cycle;Signal;HPM_P1;HPM_P2
2021/08/20 00:00:11;;;;;;;5.40;3.20;;;;;;;;;;1083253;54;20027;-65
2021/08/20 00:01:12;;;;;;;6.35;3.40;;;;;;;;;;1083218;54;20038;-65
2021/08/20 00:02:15;;;;;;;6.28;3.13;;;;;;;;;;1083210;54;20026;-65
2021/08/20 00:03:16;;;;;;;6.93;3.30;;;;;;;;;;1083658;39;20441;-65
2021/08/20 00:04:20;;;;;;;5.97;3.05;;;;;;;;;;1083259;54;20030;-65
2021/08/20 00:05:21;;;;;;;4.82;3.10;;;;;;;;;;1083659;39;20507;-65
2021/08/20 00:06:24;;;;;;;5.82;3.20;;;;;;;;;;1083260;54;20030;-65
2021/08/20 00:07:25;;;;;;;7.05;3.42;;;;;;;;;;1083178;54;20057;-64
2021/08/20 00:08:29;;;;;;;7.65;3.35;;;;;;;;;;1083222;54;20030;-65
2021/08/20 00:09:33;;;;;;;4.47;3.10;;;;;;;;;;1083921;31;20501;-65
2021/08/20 00:10:36;;;;;;;4.68;2.97;;;;;;;;;;1083238;54;20031;-65
2021/08/20 00:11:37;;;;;;;4.68;3.05;;;;;;;;;;1083224;54;20038;-65
2021/08/20 00:12:41;;;;;;;4.43;2.85;;;;;;;;;;1083642;39;20417;-65
2021/08/20 00:13:42;;;;;;;5.82;3.30;;;;;;;;;;1083220;54;20639;-65
2021/08/20 00:14:46;;;;;;;6.10;3.00;;;;;;;;;;1083669;39;20435;-65
2021/08/20 00:15:47;;;;;;;5.00;3.25;;;;;;;;;;1083213;54;20129;-65
2021/08/20 00:16:51;;;;;;;5.72;3.00;;;;;;;;;;1083177;54;20034;-65
2021/08/20 00:17:52;;;;;;;6.47;3.25;;;;;;;;;;1083343;54;20026;-65
2021/08/20 00:18:56;;;;;;;5.38;2.95;;;;;;;;;;1083227;54;20114;-65
2021/08/20 00:19:57;;;;;;;5.57;3.25;;;;;;;;;;1083197;54;20039;-65
2021/08/20 00:21:00;;;;;;;5.82;3.40;;;;;;;;;;1083217;54;20560;-65
2021/08/20 00:22:04;;;;;;;5.13;3.42;;;;;;;;;;1083015;54;20043;-65
2021/08/20 00:23:08;;;;;;;5.40;3.13;;;;;;;;;;1083224;54;20073;-65
2021/08/20 00:24:10;;;;;;;4.15;3.08;;;;;;;;;;1083259;54;20061;-65
2021/08/20 00:25:17;;;;;;;6.07;3.53;;;;;;;;;;1083226;54;20037;-65
2021/08/20 00:26:18;;;;;;;5.40;3.40;;;;;;;;;;1083703;39;20408;-65
2021/08/20 00:27:22;;;;;;;4.45;3.30;;;;;;;;;;1083178;54;20547;-65
2021/08/20 00:28:23;;;;;;;6.50;3.72;;;;;;;;;;1083205;54;20057;-65
2021/08/20 00:29:26;;;;;;;5.72;2.97;;;;;;;;;;1083213;54;20548;-65
2021/08/20 00:30:27;;;;;;;4.60;3.28;;;;;;;;;;1083187;54;20034;-65
2021/08/20 00:31:31;;;;;;;5.97;3.30;;;;;;;;;;1083224;54;20030;-65
2021/08/20 00:32:32;;;;;;;4.95;3.10;;;;;;;;;;1083260;54;20023;-65
2021/08/20 00:33:37;;;;;;;8.90;3.53;;;;;;;;;;1083272;54;20038;-65
2021/08/20 00:34:37;;;;;;;6.97;3.45;;;;;;;;;;1083187;54;20053;-65
2021/08/20 00:35:41;;;;;;;6.05;3.13;;;;;;;;;;1083203;54;20022;-65
2021/08/20 00:36:42;;;;;;;4.55;3.05;;;;;;;;;;1083168;54;20125;-65
2021/08/20 00:37:46;;;;;;;5.03;3.20;;;;;;;;;;1083619;39;20421;-65
2021/08/20 00:38:48;;;;;;;6.15;2.90;;;;;;;;;;1083290;54;20030;-65
2021/08/20 00:39:52;;;;;;;4.53;3.08;;;;;;;;;;1083587;39;20421;-65
2021/08/20 00:40:55;;;;;;;8.48;3.17;;;;;;;;;;1083145;54;20057;-65
2021/08/20 00:41:59;;;;;;;6.85;3.13;;;;;;;;;;1083956;31;20480;-65
2021/08/20 00:43:00;;;;;;;5.78;3.08;;;;;;;;;;1083630;39;20501;-65
2021/08/20 00:44:04;;;;;;;5.20;3.30;;;;;;;;;;1083219;54;20037;-65
2021/08/20 00:45:06;;;;;;;4.35;2.85;;;;;;;;;;1083147;54;20049;-65
2021/08/20 00:46:10;;;;;;;5.70;3.13;;;;;;;;;;1083170;54;20049;-65
2021/08/20 00:47:11;;;;;;;6.40;3.13;;;;;;;;;;1083146;54;20046;-65
2021/08/20 00:48:15;;;;;;;7.78;3.25;;;;;;;;;;1083199;54;20035;-65
2021/08/20 00:49:16;;;;;;;5.53;3.50;;;;;;;;;;1083199;54;20061;-65
2021/08/20 00:50:20;;;;;;;6.88;3.08;;;;;;;;;;1083637;39;20436;-65
2021/08/20 00:51:23;;;;;;;5.38;3.17;;;;;;;;;;1083194;54;20183;-65
2021/08/20 00:52:27;;;;;;;5.22;3.33;;;;;;;;;;1083182;54;20047;-65
2021/08/20 00:53:29;;;;;;;5.95;3.38;;;;;;;;;;1083165;54;20023;-65
2021/08/20 00:54:33;;;;;;;4.60;3.17;;;;;;;;;;1083169;54;20031;-65
2021/08/20 00:55:34;;;;;;;4.88;3.13;;;;;;;;;;1083218;54;20038;-65
2021/08/20 00:56:42;;;;;;;6.82;3.13;;;;;;;;;;1083152;54;20030;-65
2021/08/20 00:57:47;;;;;;;6.38;3.58;;;;;;;;;;1083932;31;20512;-65
2021/08/20 00:58:52;;;;;;;6.55;3.20;;;;;;;;;;1083619;39;20448;-65
2021/08/20 00:59:53;;;;;;;6.03;3.45;;;;;;;;;;1083136;54;20125;-65
2021/08/20 01:00:57;;;;;;;4.85;3.40;;;;;;;;;;1083160;54;20037;-65
2021/08/20 01:01:58;;;;;;;8.15;4.13;;;;;;;;;;1083177;54;20023;-65
2021/08/20 01:03:02;;;;;;;6.00;3.72;;;;;;;;;;1083198;54;20031;-65
2021/08/20 01:04:03;;;;;;;5.97;3.33;;;;;;;;;;1083177;54;20061;-65
2021/08/20 01:05:07;;;;;;;6.78;3.25;;;;;;;;;;1083147;54;20554;-65
2021/08/20 01:06:08;;;;;;;6.70;3.58;;;;;;;;;;1083866;31;20515;-65
2021/08/20 01:07:12;;;;;;;4.97;3.25;;;;;;;;;;1083182;54;20121;-65
2021/08/20 01:08:13;;;;;;;6.90;3.60;;;;;;;;;;1083122;54;20027;-65
2021/08/20 01:09:20;;;;;;;4.72;3.33;;;;;;;;;;1083568;39;20409;-65
2021/08/20 01:10:21;;;;;;;3.95;3.03;;;;;;;;;;1083132;54;20053;-65
2021/08/20 01:11:26;;;;;;;4.82;3.30;;;;;;;;;;1083178;54;20053;-65
2021/08/20 01:12:30;;;;;;;5.45;3.47;;;;;;;;;;1083166;54;20030;-65
2021/08/20 01:13:35;;;;;;;5.35;3.22;;;;;;;;;;1083575;39;20081;-65
2021/08/20 01:14:36;;;;;;;8.10;3.63;;;;;;;;;;1083146;54;20027;-65
2021/08/20 01:15:40;;;;;;;5.55;3.25;;;;;;;;;;1083132;54;20126;-65
2021/08/20 01:16:44;;;;;;;5.88;3.55;;;;;;;;;;1083201;54;20568;-65
2021/08/20 01:17:46;;;;;;;5.15;3.00;;;;;;;;;;1083158;54;20034;-65
2021/08/20 01:18:50;;;;;;;6.13;3.60;;;;;;;;;;1083134;54;20034;-65
2021/08/20 01:19:51;;;;;;;5.88;3.30;;;;;;;;;;1083145;54;20043;-65
2021/08/20 01:20:55;;;;;;;5.72;3.17;;;;;;;;;;1083194;54;20034;-65
2021/08/20 01:21:56;;;;;;;6.50;3.22;;;;;;;;;;1083124;54;20034;-65
2021/08/20 01:23:00;;;;;;;5.22;3.60;;;;;;;;;;1083126;54;20031;-65
2021/08/20 01:24:02;;;;;;;4.55;3.50;;;;;;;;;;1083174;54;20057;-65
2021/08/20 01:25:09;;;;;;;4.80;3.05;;;;;;;;;;1083119;54;20027;-65
2021/08/20 01:26:11;;;;;;;5.82;3.20;;;;;;;;;;1083145;54;20033;-65
2021/08/20 01:27:14;;;;;;;6.85;3.17;;;;;;;;;;1083119;54;20031;-65
2021/08/20 01:28:15;;;;;;;5.28;3.72;;;;;;;;;;1083129;54;20034;-65
2021/08/20 01:29:20;;;;;;;6.72;3.30;;;;;;;;;;1082802;54;20030;-65
2021/08/20 01:30:21;;;;;;;6.03;3.47;;;;;;;;;;1082964;54;20022;-65
2021/08/20 01:31:25;;;;;;;6.22;3.17;;;;;;;;;;1083093;54;20529;-65
2021/08/20 01:32:26;;;;;;;6.30;3.55;;;;;;;;;;1083114;54;20038;-65
2021/08/20 01:33:31;;;;;;;5.85;3.33;;;;;;;;;;1082802;54;20023;-65
2021/08/20 01:34:34;;;;;;;9.30;3.65;;;;;;;;;;1083111;54;20057;-65
2021/08/20 01:35:38;;;;;;;5.15;3.80;;;;;;;;;;1083154;54;20057;-65
2021/08/20 01:36:39;;;;;;;5.35;3.50;;;;;;;;;;1083105;54;20026;-65
2021/08/20 01:37:43;;;;;;;6.90;3.70;;;;;;;;;;1083479;39;20406;-65
2021/08/20 01:38:46;;;;;;;7.80;3.95;;;;;;;;;;1083126;54;20054;-65
2021/08/20 01:39:50;;;;;;;6.25;3.50;;;;;;;;;;1083062;54;20552;-65
2021/08/20 01:40:55;;;;;;;6.30;3.38;;;;;;;;;;1083156;54;20126;-65
2021/08/20 01:41:58;;;;;;;6.53;3.40;;;;;;;;;;1083132;54;20556;-65
2021/08/20 01:42:59;;;;;;;5.55;3.80;;;;;;;;;;1083121;54;20027;-65
2021/08/20 01:44:04;;;;;;;5.70;3.58;;;;;;;;;;1083570;39;20449;-65
2021/08/20 01:45:06;;;;;;;6.38;3.72;;;;;;;;;;1083117;54;20533;-65
2021/08/20 01:46:10;;;;;;;6.32;3.38;;;;;;;;;;1083089;54;20037;-65
2021/08/20 01:47:11;;;;;;;6.80;3.78;;;;;;;;;;1083075;54;20616;-65
2021/08/20 01:48:15;;;;;;;8.00;3.85;;;;;;;;;;1083098;54;20030;-65
2021/08/20 01:49:17;;;;;;;7.70;3.45;;;;;;;;;;1083516;39;20516;-65
2021/08/20 01:50:21;;;;;;;6.22;3.50;;;;;;;;;;1083110;54;20031;-65
2021/08/20 01:51:23;;;;;;;4.60;3.38;;;;;;;;;;1083079;54;20049;-64
2021/08/20 01:52:26;;;;;;;6.03;4.00;;;;;;;;;;1083081;54;20030;-65
2021/08/20 01:53:27;;;;;;;7.80;3.92;;;;;;;;;;1083138;54;20114;-64
2021/08/20 01:54:31;;;;;;;6.75;3.92;;;;;;;;;;1083066;54;20030;-65
2021/08/20 01:55:32;;;;;;;9.85;4.38;;;;;;;;;;1083061;54;20584;-65
2021/08/20 01:56:38;;;;;;;5.60;3.80;;;;;;;;;;1083098;54;20038;-64
2021/08/20 01:57:41;;;;;;;7.90;4.05;;;;;;;;;;1083208;39;20409;-65
2021/08/20 01:58:45;;;;;;;6.38;3.83;;;;;;;;;;1082855;54;20033;-64
2021/08/20 01:59:46;;;;;;;5.85;3.65;;;;;;;;;;1083114;54;20046;-64
2021/08/20 02:00:50;;;;;;;6.45;4.38;;;;;;;;;;1083038;54;20031;-65
2021/08/20 02:01:51;;;;;;;9.77;4.35;;;;;;;;;;1083132;54;20023;-64
2021/08/20 02:02:55;;;;;;;6.90;3.88;;;;;;;;;;1083069;54;20031;-64
2021/08/20 02:03:56;;;;;;;6.30;3.88;;;;;;;;;;1083050;54;20023;-64
2021/08/20 02:04:59;;;;;;;6.43;4.05;;;;;;;;;;1083075;54;20037;-65
2021/08/20 02:06:00;;;;;;;7.10;3.72;;;;;;;;;;1083110;54;20061;-64
2021/08/20 02:07:04;;;;;;;4.82;3.58;;;;;;;;;;1083062;54;20031;-64
2021/08/20 02:08:05;;;;;;;9.32;3.90;;;;;;;;;;1083039;47;20122;-64
2021/08/20 02:09:09;;;;;;;6.25;3.85;;;;;;;;;;1083078;54;20150;-64
2021/08/20 02:10:11;;;;;;;4.60;3.47;;;;;;;;;;1083080;54;20213;-65
2021/08/20 02:11:15;;;;;;;6.43;3.80;;;;;;;;;;1083102;54;20042;-64
2021/08/20 02:12:19;;;;;;;6.75;3.90;;;;;;;;;;1083069;54;20039;-65
2021/08/20 02:13:22;;;;;;;6.10;4.15;;;;;;;;;;1083046;54;20042;-65
2021/08/20 02:14:23;;;;;;;8.65;4.10;;;;;;;;;;1083008;54;20022;-65
2021/08/20 02:15:27;;;;;;;8.73;3.55;;;;;;;;;;1083036;54;20027;-65
2021/08/20 02:16:28;;;;;;;6.80;4.10;;;;;;;;;;1083040;54;20118;-65
2021/08/20 02:17:31;;;;;;;5.53;3.72;;;;;;;;;;1083052;54;20045;-65
2021/08/20 02:18:32;;;;;;;6.35;3.65;;;;;;;;;;1083116;54;20061;-64
2021/08/20 02:19:36;;;;;;;6.53;3.70;;;;;;;;;;1083024;54;20562;-65
2021/08/20 02:20:40;;;;;;;6.90;3.60;;;;;;;;;;1082983;54;20544;-65
2021/08/20 02:21:44;;;;;;;6.63;3.63;;;;;;;;;;1083080;54;20122;-65
2021/08/20 02:22:45;;;;;;;7.85;3.70;;;;;;;;;;1083068;54;20110;-65
2021/08/20 02:23:48;;;;;;;5.00;3.63;;;;;;;;;;1083010;54;20031;-65
2021/08/20 02:24:52;;;;;;;6.43;3.58;;;;;;;;;;1083090;54;20038;-64
2021/08/20 02:25:56;;;;;;;6.97;3.83;;;;;;;;;;1083038;54;20541;-64
2021/08/20 02:26:57;;;;;;;7.57;3.80;;;;;;;;;;1082988;54;20027;-65
2021/08/20 02:28:03;;;;;;;7.22;3.75;;;;;;;;;;1083013;54;20031;-64
2021/08/20 02:29:04;;;;;;;6.38;3.70;;;;;;;;;;1083070;54;20038;-64
2021/08/20 02:30:09;;;;;;;6.28;3.53;;;;;;;;;;1083034;54;20027;-65
2021/08/20 02:31:10;;;;;;;10.27;3.95;;;;;;;;;;1083005;54;20114;-65
2021/08/20 02:32:14;;;;;;;6.50;3.97;;;;;;;;;;1083370;39;20417;-64
2021/08/20 02:33:14;;;;;;;6.47;4.00;;;;;;;;;;1083033;54;20027;-65
2021/08/20 02:34:18;;;;;;;6.65;3.53;;;;;;;;;;1083000;54;20030;-65
2021/08/20 02:35:22;;;;;;;7.50;4.20;;;;;;;;;;1083016;54;20121;-65
2021/08/20 02:36:23;;;;;;;6.00;3.90;;;;;;;;;;1082994;54;20026;-64
2021/08/20 02:37:26;;;;;;;7.25;4.22;;;;;;;;;;1083055;54;20540;-64
2021/08/20 02:38:27;;;;;;;6.93;4.47;;;;;;;;;;1083011;54;20058;-64
2021/08/20 02:39:32;;;;;;;6.72;4.30;;;;;;;;;;1083453;39;20418;-64
2021/08/20 02:40:33;;;;;;;8.13;4.30;;;;;;;;;;1082926;54;20026;-65
2021/08/20 02:41:36;;;;;;;6.32;4.10;;;;;;;;;;1083003;54;20133;-64
2021/08/20 02:42:38;;;;;;;6.82;3.95;;;;;;;;;;1083002;54;20057;-64
2021/08/20 02:43:44;;;;;;;8.07;4.20;;;;;;;;;;1083013;54;20030;-64
2021/08/20 02:44:45;;;;;;;7.32;4.50;;;;;;;;;;1083137;54;20525;-65
2021/08/20 02:45:49;;;;;;;6.90;3.65;;;;;;;;;;1083363;54;20033;-64
2021/08/20 02:46:50;;;;;;;6.85;3.83;;;;;;;;;;1083304;54;20042;-64
2021/08/20 02:47:53;;;;;;;9.50;4.35;;;;;;;;;;1083341;54;20031;-65
2021/08/20 02:48:54;;;;;;;6.70;4.15;;;;;;;;;;1083318;54;20033;-65
2021/08/20 02:49:58;;;;;;;7.85;4.50;;;;;;;;;;1083359;54;20125;-65
2021/08/20 02:50:59;;;;;;;7.75;4.00;;;;;;;;;;1083341;54;20034;-65
2021/08/20 02:52:02;;;;;;;5.68;3.88;;;;;;;;;;1083328;54;20054;-65
2021/08/20 02:53:07;;;;;;;7.85;3.50;;;;;;;;;;1083331;54;20038;-65
2021/08/20 02:54:08;;;;;;;7.22;3.80;;;;;;;;;;1083319;54;20035;-65
2021/08/20 02:55:12;;;;;;;4.97;3.42;;;;;;;;;;1083084;54;20034;-64
2021/08/20 02:56:13;;;;;;;6.57;4.00;;;;;;;;;;1083069;54;20027;-65
2021/08/20 02:57:16;;;;;;;7.63;3.70;;;;;;;;;;1083284;54;20031;-65
2021/08/20 02:58:18;;;;;;;8.02;3.60;;;;;;;;;;1083290;54;20141;-64
2021/08/20 02:59:24;;;;;;;8.18;3.67;;;;;;;;;;1083349;54;20066;-65
2021/08/20 03:00:25;;;;;;;6.65;4.30;;;;;;;;;;1083278;54;20057;-65
2021/08/20 03:01:29;;;;;;;7.32;3.92;;;;;;;;;;1083298;54;20580;-64
2021/08/20 03:02:32;;;;;;;4.82;3.28;;;;;;;;;;1083311;54;20045;-65
2021/08/20 03:03:33;;;;;;;4.97;3.65;;;;;;;;;;1083371;54;20030;-65
2021/08/20 03:04:37;;;;;;;5.43;3.78;;;;;;;;;;1083790;39;20464;-65
2021/08/20 03:05:40;;;;;;;5.82;3.90;;;;;;;;;;1083304;54;20030;-65
2021/08/20 03:07:01;;;;;;;6.40;4.03;;;;;;;;;;1083023;54;20627;-64
2021/08/20 03:08:05;;;;;;;6.55;4.28;;;;;;;;;;1083123;54;20034;-65
2021/08/20 03:09:06;;;;;;;5.50;3.50;;;;;;;;;;1083315;54;20570;-64
2021/08/20 03:10:11;;;;;;;6.55;3.53;;;;;;;;;;1083361;54;20037;-64
2021/08/20 03:11:12;;;;;;;8.05;4.15;;;;;;;;;;1083310;54;20049;-64
2021/08/20 03:12:16;;;;;;;6.55;3.88;;;;;;;;;;1083333;54;20027;-65
2021/08/20 03:13:17;;;;;;;7.35;3.92;;;;;;;;;;1083732;39;20410;-65
2021/08/20 03:14:21;;;;;;;9.25;4.25;;;;;;;;;;1083318;54;20038;-65
2021/08/20 03:15:25;;;;;;;5.93;3.85;;;;;;;;;;1083301;54;20529;-64
2021/08/20 03:16:28;;;;;;;7.00;3.90;;;;;;;;;;1083275;54;20058;-64
2021/08/20 03:17:29;;;;;;;7.88;3.70;;;;;;;;;;1082976;54;20022;-65
2021/08/20 03:18:33;;;;;;;5.03;3.72;;;;;;;;;;1083051;54;20037;-64
2021/08/20 03:19:36;;;;;;;6.25;4.00;;;;;;;;;;1083275;54;20560;-64
2021/08/20 03:20:42;;;;;;;5.55;4.25;;;;;;;;;;1083245;54;20039;-65
2021/08/20 03:21:55;;;;;;;7.30;4.03;;;;;;;;;;1083082;47;20529;-65
2021/08/20 03:23:07;;;;;;;5.65;4.32;;;;;;;;;;1083059;54;20023;-65
2021/08/20 03:24:19;;;;;;;6.65;4.35;;;;;;;;;;1083111;54;20030;-65
2021/08/20 03:25:32;;;;;;;6.55;3.80;;;;;;;;;;1083069;54;20065;-65
2021/08/20 03:26:41;;;;;;;6.35;4.20;;;;;;;;;;1083175;54;20030;-65
2021/08/20 03:27:53;;;;;;;6.63;4.00;;;;;;;;;;1083711;39;20097;-65
2021/08/20 03:29:03;;;;;;;6.75;4.10;;;;;;;;;;1083302;54;20548;-65
2021/08/20 03:30:16;;;;;;;6.43;4.15;;;;;;;;;;1083298;54;20027;-65
2021/08/20 03:31:30;;;;;;;6.88;4.07;;;;;;;;;;1083294;54;20033;-65
2021/08/20 03:32:40;;;;;;;6.55;4.07;;;;;;;;;;1083302;54;20042;-65
2021/08/20 03:33:54;;;;;;;6.03;3.70;;;;;;;;;;1083329;54;20044;-65
2021/08/20 03:35:04;;;;;;;6.82;4.30;;;;;;;;;;1083285;54;20022;-65
2021/08/20 03:36:17;;;;;;;6.55;4.60;;;;;;;;;;1083310;54;20034;-65
2021/08/20 03:37:27;;;;;;;7.07;4.38;;;;;;;;;;1083263;54;20037;-64
2021/08/20 03:38:39;;;;;;;6.05;4.18;;;;;;;;;;1083294;54;20057;-65
2021/08/20 03:39:48;;;;;;;6.72;4.40;;;;;;;;;;1083307;54;20030;-65
2021/08/20 03:41:00;;;;;;;8.48;4.18;;;;;;;;;;1083259;54;20086;-65
2021/08/20 03:42:12;;;;;;;6.40;4.25;;;;;;;;;;1083268;54;20555;-64
2021/08/20 03:43:24;;;;;;;5.65;4.20;;;;;;;;;;1083263;54;20034;-64
2021/08/20 03:44:34;;;;;;;5.45;3.90;;;;;;;;;;1083318;54;20031;-64
2021/08/20 03:45:46;;;;;;;5.55;3.90;;;;;;;;;;1083698;39;20424;-64
2021/08/20 03:46:58;;;;;;;7.07;4.28;;;;;;;;;;1083246;54;20026;-65
2021/08/20 03:48:10;;;;;;;5.55;4.18;;;;;;;;;;1083291;54;20038;-65
2021/08/20 03:49:22;;;;;;;6.75;3.97;;;;;;;;;;1083267;54;20033;-65
2021/08/20 03:50:32;;;;;;;6.50;4.15;;;;;;;;;;1083260;54;20130;-65
2021/08/20 03:51:44;;;;;;;7.43;4.23;;;;;;;;;;1083276;54;20092;-64
2021/08/20 03:52:56;;;;;;;6.72;3.65;;;;;;;;;;1083274;54;20031;-64
2021/08/20 03:54:05;;;;;;;5.72;4.05;;;;;;;;;;1083272;54;20033;-64
2021/08/20 03:55:17;;;;;;;7.07;4.15;;;;;;;;;;1083271;54;20034;-64
2021/08/20 03:56:27;;;;;;;6.20;4.00;;;;;;;;;;1083124;54;20029;-65
2021/08/20 03:57:39;;;;;;;4.68;3.88;;;;;;;;;;1083221;54;20030;-65
2021/08/20 03:58:49;;;;;;;6.75;3.80;;;;;;;;;;1083333;54;20037;-64
2021/08/20 04:00:01;;;;;;;6.57;3.90;;;;;;;;;;1083274;54;20051;-65
2021/08/20 04:01:10;;;;;;;6.40;4.13;;;;;;;;;;1083252;54;20524;-65
2021/08/20 04:02:25;;;;;;;7.90;4.22;;;;;;;;;;1083245;54;20145;-65
2021/08/20 04:03:34;;;;;;;6.43;4.03;;;;;;;;;;1083358;54;20029;-65
2021/08/20 04:04:46;;;;;;;6.03;4.18;;;;;;;;;;1083340;54;20037;-65
2021/08/20 04:05:56;;;;;;;6.20;3.85;;;;;;;;;;1083700;39;20436;-65
2021/08/20 04:07:08;;;;;;;6.93;3.92;;;;;;;;;;1083205;54;20036;-65
2021/08/20 04:08:20;;;;;;;6.78;4.10;;;;;;;;;;1083388;54;20038;-64
2021/08/20 04:09:29;;;;;;;8.43;4.55;;;;;;;;;;1083687;39;20448;-64
2021/08/20 04:10:41;;;;;;;8.65;3.60;;;;;;;;;;1083277;54;20030;-65
2021/08/20 04:11:51;;;;;;;8.07;4.00;;;;;;;;;;1083291;54;20027;-65
2021/08/20 04:13:03;;;;;;;7.38;3.83;;;;;;;;;;1083276;54;20070;-65
2021/08/20 04:14:13;;;;;;;8.95;4.22;;;;;;;;;;1083226;54;20027;-65
2021/08/20 04:15:25;;;;;;;9.30;4.82;;;;;;;;;;1083276;54;20031;-65
2021/08/20 04:16:37;;;;;;;7.43;4.60;;;;;;;;;;1083300;54;20051;-65
2021/08/20 04:17:49;;;;;;;6.93;3.88;;;;;;;;;;1083311;54;20026;-64
2021/08/20 04:19:01;;;;;;;7.35;3.83;;;;;;;;;;1083242;54;20034;-64
2021/08/20 04:20:12;;;;;;;6.78;4.05;;;;;;;;;;1083217;54;20032;-64
2021/08/20 04:21:24;;;;;;;6.18;4.18;;;;;;;;;;1083975;31;20501;-65
2021/08/20 04:22:36;;;;;;;6.13;4.22;;;;;;;;;;1083235;54;20033;-65
2021/08/20 04:23:49;;;;;;;5.88;4.30;;;;;;;;;;1083261;54;20026;-65
2021/08/20 04:25:01;;;;;;;6.47;4.00;;;;;;;;;;1083260;54;20037;-64
2021/08/20 04:26:13;;;;;;;6.38;4.10;;;;;;;;;;1083266;54;20038;-65
2021/08/20 04:27:22;;;;;;;7.95;4.38;;;;;;;;;;1083181;54;20026;-64
2021/08/20 04:28:35;;;;;;;9.57;4.60;;;;;;;;;;1083248;54;20030;-65
2021/08/20 04:29:45;;;;;;;8.68;4.47;;;;;;;;;;1083199;54;20023;-64
2021/08/20 04:30:57;;;;;;;5.55;4.28;;;;;;;;;;1083652;39;20432;-64
2021/08/20 04:32:07;;;;;;;6.75;4.05;;;;;;;;;;1083637;39;20413;-65
2021/08/20 04:33:21;;;;;;;5.88;4.15;;;;;;;;;;1083233;54;20027;-65
2021/08/20 04:34:34;;;;;;;8.27;4.95;;;;;;;;;;1083244;54;20049;-65
2021/08/20 04:35:43;;;;;;;7.00;4.90;;;;;;;;;;1083209;54;20031;-65
2021/08/20 04:36:55;;;;;;;8.18;4.95;;;;;;;;;;1083159;54;20022;-64
2021/08/20 04:38:08;;;;;;;7.68;4.53;;;;;;;;;;1083218;54;20049;-65
2021/08/20 04:39:18;;;;;;;7.07;4.63;;;;;;;;;;1083221;54;20026;-65
2021/08/20 04:40:30;;;;;;;7.85;5.43;;;;;;;;;;1083219;54;20030;-64
2021/08/20 04:41:39;;;;;;;9.05;5.20;;;;;;;;;;1083156;54;20031;-65
2021/08/20 04:42:51;;;;;;;7.97;5.95;;;;;;;;;;1083228;54;20056;-65
2021/08/20 04:44:01;;;;;;;8.05;5.20;;;;;;;;;;1083587;39;20116;-64
2021/08/20 04:45:15;;;;;;;7.32;5.15;;;;;;;;;;1083210;54;20053;-65
2021/08/20 04:46:27;;;;;;;7.30;5.07;;;;;;;;;;1083187;54;20034;-65
2021/08/20 04:47:40;;;;;;;6.43;5.00;;;;;;;;;;1083232;47;20070;-65
2021/08/20 04:48:52;;;;;;;7.88;5.10;;;;;;;;;;1083187;54;20026;-65
2021/08/20 04:50:05;;;;;;;9.25;5.22;;;;;;;;;;1083179;54;20065;-65
2021/08/20 04:51:14;;;;;;;8.40;5.47;;;;;;;;;;1083217;54;20027;-65
2021/08/20 04:52:26;;;;;;;7.45;4.93;;;;;;;;;;1083197;54;20026;-65
2021/08/20 04:53:40;;;;;;;9.27;4.90;;;;;;;;;;1083192;54;20022;-64
2021/08/20 04:54:49;;;;;;;9.23;4.68;;;;;;;;;;1083187;54;20030;-65
2021/08/20 04:56:01;;;;;;;8.60;5.20;;;;;;;;;;1083215;54;20031;-65
2021/08/20 04:57:11;;;;;;;9.10;4.90;;;;;;;;;;1083172;54;20027;-65
2021/08/20 04:58:24;;;;;;;7.38;4.43;;;;;;;;;;1083174;54;20086;-65
2021/08/20 04:59:36;;;;;;;8.38;5.25;;;;;;;;;;1083169;54;20038;-65
2021/08/20 05:00:49;;;;;;;8.88;4.97;;;;;;;;;;1083167;54;20030;-65
2021/08/20 05:02:01;;;;;;;6.70;4.80;;;;;;;;;;1083168;54;20030;-64
2021/08/20 05:03:10;;;;;;;11.60;5.75;;;;;;;;;;1083188;54;20026;-64
2021/08/20 05:04:25;;;;;;;7.97;4.70;;;;;;;;;;1083177;54;20097;-65
2021/08/20 05:05:37;;;;;;;8.43;4.57;;;;;;;;;;1083171;54;20051;-64
2021/08/20 05:06:47;;;;;;;6.95;4.95;;;;;;;;;;1083187;54;20022;-65
2021/08/20 05:08:00;;;;;;;6.70;4.57;;;;;;;;;;1083183;54;20600;-65
2021/08/20 05:09:10;;;;;;;7.28;4.60;;;;;;;;;;1083167;54;20030;-65
2021/08/20 05:10:22;;;;;;;7.63;4.63;;;;;;;;;;1083188;54;20027;-64
2021/08/20 05:11:34;;;;;;;7.07;4.60;;;;;;;;;;1083172;54;20033;-64
2021/08/20 05:12:44;;;;;;;8.23;4.75;;;;;;;;;;1083184;54;20031;-64
2021/08/20 05:13:56;;;;;;;8.02;5.07;;;;;;;;;;1083357;46;20555;-65
2021/08/20 05:15:10;;;;;;;9.60;4.80;;;;;;;;;;1083161;54;20026;-65
2021/08/20 05:16:20;;;;;;;7.40;4.53;;;;;;;;;;1083174;54;20036;-65
2021/08/20 05:17:32;;;;;;;9.25;4.72;;;;;;;;;;1083132;54;20078;-65
2021/08/20 05:18:44;;;;;;;7.38;4.53;;;;;;;;;;1083176;54;20597;-65
2021/08/20 05:19:56;;;;;;;5.57;4.53;;;;;;;;;;1083185;54;20030;-65
2021/08/20 05:21:08;;;;;;;6.68;4.40;;;;;;;;;;1083159;54;20030;-65
2021/08/20 05:22:20;;;;;;;7.35;4.82;;;;;;;;;;1083083;54;20031;-64
2021/08/20 05:23:32;;;;;;;7.82;4.45;;;;;;;;;;1083145;54;20117;-65
2021/08/20 05:24:44;;;;;;;7.95;4.70;;;;;;;;;;1083373;54;20049;-59
2021/08/20 05:25:56;;;;;;;7.50;4.70;;;;;;;;;;1083193;54;20651;-58
2021/08/20 05:27:06;;;;;;;10.05;4.47;;;;;;;;;;1083182;54;20049;-58
2021/08/20 05:28:18;;;;;;;6.57;4.80;;;;;;;;;;1083177;54;20026;-60
2021/08/20 05:29:28;;;;;;;6.03;4.70;;;;;;;;;;1083261;46;20031;-58
2021/08/20 05:30:40;;;;;;;6.07;4.50;;;;;;;;;;1083256;54;20037;-58
2021/08/20 05:31:50;;;;;;;7.10;4.00;;;;;;;;;;1083181;54;20027;-59
2021/08/20 05:33:02;;;;;;;5.80;4.07;;;;;;;;;;1083192;54;20026;-58
2021/08/20 05:34:12;;;;;;;6.85;4.88;;;;;;;;;;1083085;54;20034;-58
2021/08/20 05:35:26;;;;;;;8.77;4.50;;;;;;;;;;1083209;54;20568;-58
2021/08/20 05:36:38;;;;;;;6.00;4.40;;;;;;;;;;1083172;54;20030;-59
2021/08/20 05:37:49;;;;;;;5.95;4.25;;;;;;;;;;1083146;54;20061;-59
2021/08/20 05:39:01;;;;;;;4.97;3.92;;;;;;;;;;1083160;54;20038;-58
2021/08/20 05:40:15;;;;;;;7.13;4.30;;;;;;;;;;1083170;54;20031;-58
2021/08/20 05:41:24;;;;;;;6.63;3.97;;;;;;;;;;1083152;54;20030;-59
2021/08/20 05:42:36;;;;;;;5.93;4.80;;;;;;;;;;1083106;54;20057;-58
2021/08/20 05:43:49;;;;;;;8.77;4.43;;;;;;;;;;1083167;54;20026;-59
2021/08/20 05:44:58;;;;;;;6.53;4.18;;;;;;;;;;1083082;54;20054;-58
2021/08/20 05:46:10;;;;;;;7.63;4.60;;;;;;;;;;1083188;54;20037;-58
2021/08/20 05:47:20;;;;;;;5.47;4.13;;;;;;;;;;1083089;54;20032;-59
2021/08/20 05:48:32;;;;;;;7.10;3.83;;;;;;;;;;1083173;54;20026;-58
2021/08/20 05:49:42;;;;;;;7.30;4.05;;;;;;;;;;1083175;54;20031;-58
2021/08/20 05:50:57;;;;;;;8.55;4.60;;;;;;;;;;1083248;54;20039;-58
2021/08/20 05:52:09;;;;;;;6.80;4.20;;;;;;;;;;1083130;54;20114;-58
2021/08/20 05:53:22;;;;;;;8.93;4.38;;;;;;;;;;1083126;54;20037;-58
2021/08/20 05:54:31;;;;;;;5.90;3.85;;;;;;;;;;1083500;39;20420;-58
2021/08/20 05:55:43;;;;;;;7.70;4.60;;;;;;;;;;1083162;54;20037;-58
2021/08/20 05:56:53;;;;;;;6.95;4.72;;;;;;;;;;1083096;54;20267;-58
2021/08/20 05:58:06;;;;;;;7.43;4.78;;;;;;;;;;1083128;54;20030;-58
2021/08/20 05:59:16;;;;;;;7.32;4.55;;;;;;;;;;1083078;54;20031;-58
2021/08/20 06:00:28;;;;;;;11.32;6.55;;;;;;;;;;1083085;54;20030;-59
2021/08/20 06:01:38;;;;;;;7.88;4.97;;;;;;;;;;1083117;54;20043;-58
2021/08/20 06:02:50;;;;;;;10.30;5.78;;;;;;;;;;1083116;54;20037;-60
2021/08/20 06:04:02;;;;;;;7.82;5.20;;;;;;;;;;1083103;54;20066;-58
2021/08/20 06:05:11;;;;;;;8.27;5.22;;;;;;;;;;1083112;54;20022;-58
2021/08/20 06:06:26;;;;;;;11.57;6.45;;;;;;;;;;1083131;54;20078;-58
2021/08/20 06:07:38;;;;;;;11.88;7.15;;;;;;;;;;1083124;54;20027;-58
2021/08/20 06:08:50;;;;;;;8.82;6.43;;;;;;;;;;1083096;54;20033;-58
2021/08/20 06:10:00;;;;;;;9.45;7.03;;;;;;;;;;1083136;54;20061;-58
2021/08/20 06:11:12;;;;;;;9.68;6.45;;;;;;;;;;1083127;54;20114;-58
2021/08/20 06:12:24;;;;;;;10.80;7.68;;;;;;;;;;1083069;54;20061;-58
2021/08/20 06:13:34;;;;;;;11.75;7.63;;;;;;;;;;1083118;54;20567;-58
2021/08/20 06:14:46;;;;;;;11.52;7.72;;;;;;;;;;1083025;54;20038;-58
2021/08/20 06:15:56;;;;;;;12.77;7.50;;;;;;;;;;1083092;54;20138;-58
2021/08/20 06:17:08;;;;;;;9.05;7.72;;;;;;;;;;1083133;54;20078;-58
2021/08/20 06:18:20;;;;;;;10.40;7.50;;;;;;;;;;1083058;54;20114;-58
2021/08/20 06:19:29;;;;;;;10.07;7.28;;;;;;;;;;1083103;54;20065;-58
2021/08/20 06:20:42;;;;;;;8.88;7.10;;;;;;;;;;1083478;54;20030;-60
2021/08/20 06:21:57;;;;;;;10.40;7.20;;;;;;;;;;1083423;54;20034;-58
2021/08/20 06:23:09;;;;;;;11.10;7.65;;;;;;;;;;1083413;54;20026;-58
2021/08/20 06:24:21;;;;;;;10.20;6.82;;;;;;;;;;1083322;54;20053;-59
2021/08/20 06:25:33;;;;;;;9.57;6.82;;;;;;;;;;1083468;54;20030;-56
2021/08/20 06:26:46;;;;;;;10.50;7.25;;;;;;;;;;1083403;54;20667;-58
2021/08/20 06:27:55;;;;;;;9.82;7.10;;;;;;;;;;1083415;54;20070;-58
2021/08/20 06:29:07;;;;;;;7.50;6.68;;;;;;;;;;1083428;54;20137;-58
2021/08/20 06:30:17;;;;;;;9.23;7.22;;;;;;;;;;1083432;54;20030;-58
2021/08/20 06:31:29;;;;;;;11.10;7.70;;;;;;;;;;1083413;54;20105;-58
2021/08/20 06:32:38;;;;;;;9.55;7.00;;;;;;;;;;1083452;54;20054;-58
2021/08/20 06:33:53;;;;;;;10.23;7.55;;;;;;;;;;1083431;54;20528;-58
2021/08/20 06:35:06;;;;;;;12.32;7.25;;;;;;;;;;1083379;54;20022;-58
2021/08/20 06:36:15;;;;;;;9.85;6.97;;;;;;;;;;1083417;54;20057;-57
2021/08/20 06:37:30;;;;;;;9.18;6.93;;;;;;;;;;1083411;54;20030;-58
2021/08/20 06:38:42;;;;;;;9.60;6.18;;;;;;;;;;1083392;54;20033;-58
2021/08/20 06:39:54;;;;;;;12.60;6.80;;;;;;;;;;1083400;54;20034;-58
2021/08/20 06:41:06;;;;;;;9.98;7.30;;;;;;;;;;1083848;39;20435;-58